• Join FlightAware (Why Join?)
  • Login
  • US Flag 
12:41AM EDT


 

Airport Tracker/Info


-or-


 

Live Flight TrackerFlight Track Log ✈ EJA982 ✈ 16-Jun-2013 ✈ KASE - KOTH

Flight Track Log - Related Links

Times and Time Zones

All times are in EDT time to prevent confusion due to time zone crossing. See the EJA982 flight status page for this flight to view local times or setup timezone preferences in your user account.

Time Position Orientation Groundspeed Altitude Reporting Facility
EDT Latitude Longitude Course Direction KTS MPH feet Rate Location/Type
10:41AM 39.2544 -106.8794 285° West 192 221 40,000  Level Denver Center
10:42AM 39.2917 -106.9306 313° West 239 275 11,700 -12,060 Descending Denver Center
10:43AM 39.3125 -107.0203 287° West 256 295 15,100 2,280 Climbing Denver Center
10:44AM 39.3461 -107.1256 292° West 306 352 16,500 1,560 Climbing Denver Center
10:45AM 39.3867 -107.2586 292° West 345 397 18,400 1,980 Climbing Denver Center
10:46AM 39.4281 -107.3958 291° West 363 418 20,700 1,980 Climbing Denver Center
10:47AM 39.4817 -107.5581 285° West  Level FlightAware Approximate
10:47AM 39.4644 -107.5158 291° West 372 428 22,600  Level Denver Center
10:49AM 39.5089 -107.6564 292° West 376 433 24,800 1,980 Climbing Denver Center
10:50AM 39.5450 -107.7806 291° West 381 438 26,700 1,980 Climbing Denver Center
10:51AM 39.5831 -107.9261 289° West 384 442 29,000 1,980 Climbing Denver Center
10:52AM 39.6172 -108.0522 289° West 389 448 30,900 1,800 Climbing Denver Center
10:53AM 39.6519 -108.1783 290° West 387 445 32,800 1,980 Climbing Denver Center
10:54AM 39.6917 -108.3269 289° West 391 450 35,000 1,500 Climbing Denver Center
10:55AM 39.7247 -108.4539 289° West 388 447 36,000 480 Climbing Denver Center
10:56AM 39.7681 -108.6169 289° West 435 501 36,000  Level Denver Center
10:57AM 39.8131 -108.7919 289° West 468 539 36,000  Level Denver Center
10:58AM 39.8528 -108.9478 288° West 479 551 36,000  Level Denver Center
10:59AM 39.8931 -109.1053 288° West 483 556 36,000  Level Salt Lake Center
11:00AM 39.9328 -109.2628 288° West 481 554 36,000 180 Level Salt Lake Center
11:01AM 39.9797 -109.4469 288° West 481 554 36,400 660 Climbing Salt Lake Center
11:02AM 40.0186 -109.6022 288° West 474 545 37,400 1,020 Climbing Salt Lake Center
11:03AM 40.0625 -109.7794 288° West 463 533 38,500 960 Climbing Salt Lake Center
11:04AM 40.0994 -109.9286 288° West 454 522 39,400 720 Climbing Salt Lake Center
11:05AM 40.1361 -110.0747 288° West 446 513 40,000 240 Climbing Salt Lake Center
11:06AM 40.1936 -110.2425 294° West 452 520 40,000  Level Salt Lake Center
11:07AM 40.2503 -110.3881 297° West 465 535 40,000  Level Salt Lake Center
11:08AM 40.3147 -110.5561 297° West 464 534 40,000  Level Salt Lake Center
11:09AM 40.3703 -110.6978 297° West 469 540 40,000  Level Salt Lake Center
11:10AM 40.4278 -110.8511 296° West 470 541 40,000  Level Salt Lake Center
11:11AM 40.4981 -111.0347 297° West 470 541 40,000  Level Salt Lake Center
11:12AM 40.5567 -111.1900 296° West 475 547 40,000  Level Salt Lake Center
11:13AM 40.6147 -111.3436 297° West 470 541 40,000  Level Salt Lake Center
11:14AM 40.6719 -111.4978 296° West 469 540 40,000  Level Salt Lake Center
11:15AM 40.7292 -111.6525 296° West 467 537 40,000  Level Salt Lake Center
11:16AM 40.7783 -111.8122 292° West 465 535 40,000  Level Salt Lake Center
11:17AM 40.8242 -111.9756 290° West 468 539 40,000  Level Salt Lake Center
11:18AM 40.8672 -112.1431 289° West 481 554 40,000  Level Salt Lake Center
11:19AM 40.9217 -112.3381 290° West 468 539 40,000  Level Salt Lake Center
11:20AM 40.9664 -112.5011 290° West 472 543 40,000  Level Salt Lake Center
11:21AM 41.0100 -112.6642 290° West 469 540 40,000  Level Salt Lake Center
11:22AM 41.0539 -112.8275 290° West 471 542 40,000  Level Salt Lake Center
11:23AM 41.0972 -112.9939 289° West 477 549 40,000  Level Salt Lake Center
11:24AM 41.1403 -113.1586 289° West 474 545 40,000  Level Salt Lake Center
11:26AM 41.1908 -113.3556 289° West 471 542 40,000  Level Salt Lake Center
11:27AM 41.2336 -113.5219 289° West 475 547 40,000  Level Salt Lake Center
11:28AM 41.2769 -113.6872 289° West 475 547 40,000  Level Salt Lake Center
11:29AM 41.3200 -113.8544 289° West 478 550 40,000  Level Salt Lake Center
11:30AM 41.3614 -114.0231 288° West 479 551 40,000  Level Salt Lake Center
11:31AM 41.4031 -114.1906 288° West 479 551 40,000  Level Salt Lake Center
11:32AM 41.4556 -114.3925 289° West 481 554 40,000  Level Salt Lake Center
11:33AM 41.4967 -114.5608 288° West 478 550 40,000  Level Salt Lake Center
11:34AM 41.5394 -114.7297 289° West 481 554 40,000  Level Salt Lake Center
11:35AM 41.5808 -114.9019 288° West 476 548 40,000  Level Salt Lake Center
11:36AM 41.6200 -115.0628 288° West 476 548 40,000  Level Salt Lake Center
11:37AM 41.6656 -115.2525 288° West 480 552 40,000  Level Salt Lake Center
11:38AM 41.7050 -115.4158 288° West 481 554 40,000  Level Salt Lake Center
11:39AM 41.7489 -115.6022 288° West 474 545 40,000  Level Salt Lake Center
11:40AM 41.7869 -115.7636 288° West 474 545 40,000  Level Salt Lake Center
11:41AM 41.8331 -115.9578 288° West 488 562 40,000  Level Salt Lake Center
11:42AM 41.8700 -116.1192 287° West 478 550 40,000  Level Salt Lake Center
11:43AM 41.9131 -116.3067 287° West 473 544 40,000  Level Salt Lake Center
11:44AM 41.9506 -116.4683 287° West 475 547 40,000  Level Salt Lake Center
11:45AM 41.9936 -116.6608 287° West 481 554 40,000  Level Salt Lake Center
11:46AM 42.0300 -116.8233 287° West 476 548 40,000  Level Salt Lake Center
11:47AM 42.0728 -117.0161 287° West 481 554 40,000  Level Salt Lake Center
11:48AM 42.1089 -117.1789 287° West 478 550 40,000  Level Salt Lake Center
11:49AM 42.1511 -117.3703 287° West 478 550 40,000  Level Salt Lake Center
11:50AM 42.1861 -117.5350 286° West 478 550 40,000  Level Salt Lake Center
11:51AM 42.2222 -117.6986 287° West 477 549 40,000  Level Salt Lake Center
11:52AM 42.2619 -117.8894 286° West 473 544 40,000  Level Salt Lake Center
11:53AM 42.2969 -118.0553 286° West 477 549 40,000  Level Salt Lake Center
11:54AM 42.3392 -118.2467 287° West 478 550 40,000  Level Salt Lake Center
11:56AM 42.3739 -118.4111 286° West 476 548 40,000  Level Salt Lake Center
11:57AM 42.4125 -118.6064 285° West 481 554 40,000  Level Salt Lake Center
11:58AM 42.4472 -118.7731 286° West 475 547 40,000  Level Salt Lake Center
11:59AM 42.4825 -118.9450 286° West 474 545 40,000  Level Salt Lake Center
12:00PM 42.5167 -119.1158 285° West 471 542 40,000  Level Salt Lake Center
12:01PM 42.5508 -119.2897 285° West 475 547 40,000  Level Salt Lake Center
12:02PM 42.5922 -119.4981 285° West 477 549 40,000  Level Salt Lake Center
12:03PM 42.6264 -119.6675 285° West 471 542 40,000  Level Seattle Center
12:04PM 42.6606 -119.8436 285° West 480 552 40,000  Level Seattle Center
12:05PM 42.6939 -120.0186 285° West 480 552 40,000  Level Seattle Center
12:06PM 42.7358 -120.2281 285° West 479 551 40,000  Level Seattle Center
12:07PM 42.7619 -120.3706 284° West 481 554 40,000  Level Seattle Center
12:08PM 42.7981 -120.5575 285° West 489 563 40,000  Level Seattle Center
12:09PM 42.8336 -120.7689 283° West 490 564 40,000  Level Seattle Center
12:10PM 42.8664 -120.9483 284° West 490 564 40,000  Level Seattle Center
12:11PM 42.9011 -121.1333 284° West 489 563 40,000  Level Seattle Center
12:12PM 42.9333 -121.3103 284° West 482 555 40,000  Level Seattle Center
12:13PM 42.9650 -121.4886 284° West 482 555 40,000  Level Seattle Center
12:14PM 42.9950 -121.6608 283° West 480 552 40,000  Level Seattle Center
12:15PM 43.0297 -121.8547 284° West 484 557 40,000 -600 Level Seattle Center
12:16PM 43.0572 -122.0211 283° West 486 559 38,800 -2,160 Descending Seattle Center
12:17PM 43.0875 -122.1989 283° West 481 554 35,700 -3,060 Descending Seattle Center
12:18PM 43.1172 -122.3764 283° West 479 551 32,600 -3,120 Descending Seattle Center
12:19PM 43.1481 -122.5572 283° West 486 559 29,400 -3,180 Descending Seattle Center
12:20PM 43.1794 -122.7375 283° West 485 558 26,200 -3,060 Descending Seattle Center
12:21PM 43.2067 -122.9167 282° West 482 555 23,200 -3,180 Descending Seattle Center
12:22PM 43.2386 -123.1100 283° West 451 519 19,800 -2,940 Descending Seattle Center
12:23PM 43.2631 -123.2622 282° West 422 486 17,300 -2,580 Descending Seattle Center
12:24PM 43.2864 -123.4083 282° West 399 459 14,600 -2,760 Descending Seattle Center
12:25PM 43.3092 -123.5553 282° West 394 453 11,800 -2,700 Descending Seattle Center
12:26PM 43.3303 -123.6864 283° West 365 420 9,200 -2,160 Descending Seattle Center
12:27PM 43.3467 -123.7947 282° West 306 352 7,500 -1,680 Descending Seattle Center
12:28PM 43.3622 -123.8950 282° West 274 315 5,800 -1,260 Descending Seattle Center
12:29PM 43.3789 -123.9986 283° West 276 318 5,000 -420 Descending Seattle Center
12:30PM 43.3914 -124.0856 281° West 259 298 5,000  Level Seattle Center
12:31PM 43.3825 -124.1411 258° West 221 254 5,000 -120 Level Seattle Center
12:32PM 43.3553 -124.2008 238° Southwest 198 228 4,800 -300 Descending Seattle Center
12:33PM 43.3281 -124.2611 238° Southwest 189 217 4,400 -420 Descending Seattle Center
12:34PM 43.2925 -124.3353 237° Southwest 209 241 4,000 -240 Descending Seattle Center
12:35PM 43.2600 -124.4047 237° Southwest 218 251 4,000 -180 Level Seattle Center
12:36PM 43.2711 -124.5156 278° West 227 261 3,700 -300 Descending Seattle Center
12:38PM 43.3568 -124.3631 65° Northeast  Level FlightAware Approximate
12:45PM 43.4169 -124.2470 55° Northeast  Level Estimated
12:46PM 43.4169 -124.2470 55° Northeast  Level Estimated
12:47PM 43.4169 -124.2470 55° Northeast  Level Estimated